createdAt,value
2019-01-08T00:01:33.510Z,1.73
2019-01-08T00:03:59.448Z,2.13
2019-01-08T00:06:25.390Z,1.80
2019-01-08T00:08:51.332Z,1.50
2019-01-08T00:11:17.288Z,1.37
2019-01-08T00:13:43.235Z,1.30
2019-01-08T00:16:09.196Z,1.80
2019-01-08T00:18:35.166Z,1.57
2019-01-08T00:21:01.087Z,1.53
2019-01-08T00:23:27.036Z,1.70
2019-01-08T00:25:53.476Z,1.27
2019-01-08T00:28:19.430Z,1.53
2019-01-08T00:30:45.366Z,1.60
2019-01-08T00:33:11.326Z,1.67
2019-01-08T00:35:37.607Z,1.87
2019-01-08T00:38:03.571Z,1.77
2019-01-08T00:40:29.631Z,1.60
2019-01-08T00:42:55.583Z,1.60
2019-01-08T00:45:21.548Z,2.00
2019-01-08T00:47:47.483Z,1.50
2019-01-08T00:50:13.451Z,1.60
2019-01-08T00:52:39.389Z,1.47
2019-01-08T00:55:05.425Z,1.83
2019-01-08T00:57:31.381Z,1.90
2019-01-08T00:59:57.321Z,1.53
2019-01-08T01:02:23.277Z,1.70
2019-01-08T01:04:49.208Z,1.70
2019-01-08T01:07:15.152Z,1.80
2019-01-08T01:09:41.089Z,1.37
2019-01-08T01:12:07.028Z,1.97
2019-01-08T01:14:32.955Z,1.90
2019-01-08T01:16:58.897Z,1.37
2019-01-08T01:19:24.863Z,1.50
2019-01-08T01:21:50.818Z,1.47
2019-01-08T01:24:16.777Z,1.77
2019-01-08T01:26:42.731Z,1.50
2019-01-08T01:29:08.702Z,1.53
2019-01-08T01:31:34.731Z,2.50
2019-01-08T01:34:00.688Z,1.20
2019-01-08T01:36:26.630Z,1.93
2019-01-08T01:38:52.597Z,1.40
2019-01-08T01:41:18.548Z,1.83
2019-01-08T01:43:44.516Z,1.40
2019-01-08T01:46:10.471Z,1.67
2019-01-08T01:48:36.429Z,1.70
2019-01-08T01:51:02.389Z,1.20
2019-01-08T01:53:28.337Z,1.53
2019-01-08T01:55:54.601Z,2.23
2019-01-08T01:58:20.546Z,2.00
2019-01-08T02:00:46.481Z,1.80
2019-01-08T02:03:12.435Z,1.60
2019-01-08T02:05:38.736Z,1.50
2019-01-08T02:08:04.676Z,1.80
2019-01-08T02:10:30.605Z,1.50
2019-01-08T02:12:56.547Z,1.40
2019-01-08T02:15:22.877Z,1.30
2019-01-08T02:17:48.945Z,0.87
2019-01-08T02:20:14.981Z,1.50
2019-01-08T02:22:40.921Z,1.50
2019-01-08T02:25:06.869Z,1.10
2019-01-08T02:27:32.811Z,1.80
2019-01-08T02:29:58.774Z,1.70
2019-01-08T02:32:24.709Z,1.47
2019-01-08T02:34:50.666Z,1.50
2019-01-08T02:37:16.617Z,1.30
2019-01-08T02:39:42.594Z,1.00
2019-01-08T02:42:08.632Z,1.10
2019-01-08T02:44:34.759Z,1.60
2019-01-08T02:47:01.041Z,1.60
2019-01-08T02:49:27.115Z,1.30
2019-01-08T02:51:53.045Z,1.50
2019-01-08T02:54:19.099Z,2.13
2019-01-08T02:56:45.242Z,1.37
2019-01-08T02:59:11.174Z,1.57
2019-01-08T03:01:37.123Z,1.30
2019-01-08T03:04:03.077Z,1.20
2019-01-08T03:06:29.012Z,1.30
2019-01-08T03:08:54.984Z,1.63
2019-01-08T03:11:20.925Z,1.40
2019-01-08T03:13:46.867Z,1.23
2019-01-08T03:16:12.810Z,1.03
2019-01-08T03:18:38.771Z,1.57
2019-01-08T03:21:04.698Z,1.20
2019-01-08T03:23:30.665Z,1.50
2019-01-08T03:25:56.715Z,1.67
2019-01-08T03:28:22.666Z,1.57
2019-01-08T03:30:48.638Z,1.47
2019-01-08T03:33:14.686Z,1.10
2019-01-08T03:35:40.648Z,1.47
2019-01-08T03:38:06.602Z,1.50
2019-01-08T03:40:32.633Z,1.13
2019-01-08T03:42:58.589Z,1.20
2019-01-08T03:45:24.524Z,1.50
2019-01-08T03:47:50.482Z,1.70
2019-01-08T03:50:16.432Z,1.13
2019-01-08T03:52:42.402Z,0.97
2019-01-08T03:55:08.345Z,1.60
2019-01-08T03:57:34.291Z,1.27
2019-01-08T04:00:00.231Z,1.20
2019-01-08T04:02:26.178Z,1.10
2019-01-08T04:04:52.118Z,1.47
2019-01-08T04:07:18.044Z,1.37
2019-01-08T04:09:44.013Z,1.10
2019-01-08T04:12:09.948Z,1.20
2019-01-08T04:14:35.909Z,1.40
2019-01-08T04:17:01.840Z,1.03
2019-01-08T04:19:27.800Z,0.93
2019-01-08T04:21:53.724Z,1.20
2019-01-08T04:24:19.676Z,1.10
2019-01-08T04:26:45.615Z,1.27
2019-01-08T04:29:11.567Z,1.00
2019-01-08T04:31:37.512Z,1.00
2019-01-08T04:34:03.475Z,0.70
2019-01-08T04:36:29.426Z,1.20
2019-01-08T04:38:55.460Z,1.13
2019-01-08T04:41:21.410Z,1.03
2019-01-08T04:43:47.371Z,0.83
2019-01-08T04:46:13.407Z,1.20
2019-01-08T04:48:39.362Z,0.80
2019-01-08T04:51:05.330Z,1.23
2019-01-08T04:53:31.279Z,1.40
2019-01-08T04:55:57.240Z,0.97
2019-01-08T04:58:23.182Z,0.80
2019-01-08T05:00:49.147Z,0.90
2019-01-08T05:03:15.195Z,1.07
2019-01-08T05:05:41.643Z,0.70
2019-01-08T05:08:07.666Z,0.90
2019-01-08T05:10:33.626Z,0.90
2019-01-08T05:12:59.658Z,0.80
2019-01-08T05:15:25.633Z,1.30
2019-01-08T05:17:51.669Z,1.07
2019-01-08T05:20:17.611Z,1.20
2019-01-08T05:22:43.551Z,0.87
2019-01-08T05:25:09.517Z,1.10
2019-01-08T05:27:35.476Z,1.00
2019-01-08T05:30:07.784Z,1.23
2019-01-08T05:32:29.281Z,1.30
2019-01-08T05:34:55.244Z,1.33
2019-01-08T05:37:21.199Z,0.97
2019-01-08T05:39:47.157Z,1.00
2019-01-08T05:42:13.117Z,1.10
2019-01-08T05:44:39.133Z,0.90
2019-01-08T05:47:05.186Z,0.70
2019-01-08T05:49:31.331Z,0.90
2019-01-08T05:51:57.285Z,1.17
2019-01-08T05:54:23.229Z,1.00
2019-01-08T05:56:49.182Z,1.00
2019-01-08T05:59:15.141Z,1.00
2019-01-08T06:01:41.085Z,1.10
2019-01-08T06:04:07.019Z,1.00
2019-01-08T06:06:32.967Z,1.37
2019-01-08T06:08:58.926Z,0.80
2019-01-08T06:11:24.991Z,0.73
2019-01-08T06:13:50.931Z,1.23
2019-01-08T06:16:16.869Z,1.10
2019-01-08T06:18:42.826Z,0.80
2019-01-08T06:21:08.773Z,0.80
2019-01-08T06:23:34.735Z,1.03
2019-01-08T06:26:00.668Z,1.03
2019-01-08T06:28:26.631Z,0.90
2019-01-08T06:30:52.675Z,1.20
2019-01-08T06:33:18.725Z,1.30
2019-01-08T06:35:44.665Z,0.83
2019-01-08T06:38:10.623Z,1.80
2019-01-08T06:40:36.577Z,0.90
2019-01-08T06:43:02.526Z,0.80
2019-01-08T06:45:28.612Z,0.97
2019-01-08T06:47:54.578Z,1.20
2019-01-08T06:50:20.514Z,0.70
2019-01-08T06:52:46.466Z,0.60
2019-01-08T06:55:12.422Z,0.70
2019-01-08T06:57:38.359Z,1.27
2019-01-08T07:00:04.322Z,1.47
2019-01-08T07:02:30.347Z,1.23
2019-01-08T07:04:56.297Z,0.63
2019-01-08T07:07:22.239Z,1.10
2019-01-08T07:09:48.179Z,0.97
2019-01-08T07:12:14.129Z,0.90
2019-01-08T07:14:40.061Z,1.20
2019-01-08T07:17:06.002Z,0.90
2019-01-08T07:19:31.934Z,0.70
2019-01-08T07:21:57.884Z,0.80
2019-01-08T07:24:23.855Z,0.83
2019-01-08T07:26:49.828Z,0.80
2019-01-08T07:29:15.856Z,1.47
2019-01-08T07:31:41.807Z,0.70
2019-01-08T07:34:07.766Z,0.83
2019-01-08T07:36:33.725Z,0.80
2019-01-08T07:38:59.666Z,1.00
2019-01-08T07:41:25.604Z,0.97
2019-01-08T07:43:51.548Z,1.27
2019-01-08T07:46:17.491Z,0.73
2019-01-08T07:48:43.458Z,0.80
2019-01-08T07:51:09.388Z,0.80
2019-01-08T07:53:35.368Z,0.97
2019-01-08T07:56:01.412Z,0.90
2019-01-08T07:58:27.362Z,0.80
2019-01-08T08:00:53.301Z,0.70
2019-01-08T08:03:19.241Z,0.80
2019-01-08T08:05:46.134Z,0.80
2019-01-08T08:08:12.190Z,0.60
2019-01-08T08:10:38.124Z,0.70
2019-01-08T08:13:04.074Z,0.83
2019-01-08T08:15:30.418Z,0.83
2019-01-08T08:17:56.383Z,0.57
2019-01-08T08:20:22.343Z,1.07
2019-01-08T08:22:48.392Z,0.97
2019-01-08T08:25:14.359Z,0.70
2019-01-08T08:27:40.318Z,1.10
2019-01-08T08:30:06.259Z,0.90
2019-01-08T08:32:32.208Z,0.90
2019-01-08T08:34:58.164Z,1.10
2019-01-08T08:37:24.109Z,0.80
2019-01-08T08:39:50.065Z,0.80
2019-01-08T08:42:16.130Z,0.90
2019-01-08T08:44:42.071Z,0.97
2019-01-08T08:47:08.008Z,1.10
2019-01-08T08:49:33.946Z,0.67
2019-01-08T08:51:59.904Z,0.80
2019-01-08T08:54:25.848Z,0.90
2019-01-08T08:56:51.947Z,0.80
2019-01-08T08:59:17.984Z,0.90
2019-01-08T09:01:43.944Z,0.60
2019-01-08T09:04:09.905Z,0.80
2019-01-08T09:06:35.842Z,0.80
2019-01-08T09:09:01.896Z,0.70
2019-01-08T09:11:27.828Z,0.73
2019-01-08T09:13:53.788Z,1.17
2019-01-08T09:16:19.748Z,0.80
2019-01-08T09:18:45.698Z,0.77
2019-01-08T09:21:11.746Z,0.60
2019-01-08T09:23:37.709Z,0.80
2019-01-08T09:26:03.670Z,1.00
2019-01-08T09:28:29.598Z,0.80
2019-01-08T09:30:55.551Z,0.67
2019-01-08T09:33:21.493Z,0.93
2019-01-08T09:35:47.998Z,1.00
2019-01-08T09:38:13.929Z,1.10
2019-01-08T09:40:39.888Z,0.70
2019-01-08T09:43:05.844Z,0.57
2019-01-08T09:45:31.793Z,0.80
2019-01-08T09:47:57.738Z,1.00
2019-01-08T09:50:23.674Z,0.77
2019-01-08T09:52:49.642Z,0.70
2019-01-08T09:55:15.696Z,0.70
2019-01-08T09:57:41.649Z,0.80
2019-01-08T10:00:07.684Z,0.70
2019-01-08T10:02:33.758Z,0.50
2019-01-08T10:04:59.732Z,0.60
2019-01-08T10:07:25.753Z,0.87
2019-01-08T10:09:51.703Z,0.93
2019-01-08T10:12:17.718Z,0.70
2019-01-08T10:14:43.701Z,0.70
2019-01-08T10:17:09.660Z,0.80
2019-01-08T10:19:35.609Z,0.90
2019-01-08T10:22:01.561Z,0.93
2019-01-08T10:24:27.505Z,0.90
2019-01-08T10:26:53.457Z,0.80
2019-01-08T10:29:19.517Z,1.33
2019-01-08T10:31:45.558Z,0.90
2019-01-08T10:34:11.505Z,0.90
2019-01-08T10:36:37.473Z,0.60
2019-01-08T10:39:03.503Z,0.70
2019-01-08T10:41:29.457Z,0.80
2019-01-08T10:43:55.403Z,0.77
2019-01-08T10:46:21.354Z,1.23
2019-01-08T10:48:47.295Z,0.70
2019-01-08T10:51:13.235Z,0.73
2019-01-08T10:53:39.191Z,0.80
2019-01-08T10:56:05.145Z,1.30
2019-01-08T10:58:31.087Z,0.80
2019-01-08T11:00:57.029Z,1.07
2019-01-08T11:03:22.985Z,0.70
2019-01-08T11:05:48.919Z,1.10
2019-01-08T11:08:14.867Z,0.90
2019-01-08T11:10:40.806Z,0.83
2019-01-08T11:13:06.758Z,0.90
2019-01-08T11:15:32.892Z,0.83
2019-01-08T11:17:58.864Z,0.97
2019-01-08T11:20:24.805Z,0.90
2019-01-08T11:22:50.775Z,0.93
2019-01-08T11:25:16.831Z,0.97
2019-01-08T11:27:42.985Z,0.60
2019-01-08T11:30:08.954Z,1.23
2019-01-08T11:32:34.905Z,0.70
2019-01-08T11:35:00.855Z,1.37
2019-01-08T11:37:26.805Z,0.83
2019-01-08T11:39:52.760Z,0.63
2019-01-08T11:42:18.702Z,1.00
2019-01-08T11:44:44.653Z,1.00
2019-01-08T11:47:10.627Z,0.60
2019-01-08T11:49:36.607Z,0.93
2019-01-08T11:52:02.639Z,0.70
2019-01-08T11:54:28.594Z,0.93
2019-01-08T11:56:54.557Z,0.80
2019-01-08T11:59:20.521Z,0.60
2019-01-08T12:01:46.954Z,0.70
2019-01-08T12:04:13.781Z,0.80
2019-01-08T12:06:39.731Z,0.70
2019-01-08T12:09:05.678Z,0.50
2019-01-08T12:11:31.613Z,0.80
2019-01-08T12:13:57.557Z,0.90
2019-01-08T12:16:23.509Z,1.03
2019-01-08T12:18:49.460Z,1.03
2019-01-08T12:21:15.423Z,0.60
2019-01-08T12:23:41.360Z,1.03
2019-01-08T12:26:07.314Z,1.00
2019-01-08T12:28:33.242Z,0.57
2019-01-08T12:30:59.203Z,0.70
2019-01-08T12:33:25.180Z,0.80
2019-01-08T12:35:51.132Z,0.63
2019-01-08T12:38:17.068Z,1.40
2019-01-08T12:40:43.004Z,0.80
2019-01-08T12:43:08.973Z,0.70
2019-01-08T12:45:34.939Z,0.90
2019-01-08T12:48:00.982Z,1.00
2019-01-08T12:50:26.913Z,0.90
2019-01-08T12:52:52.890Z,0.93
2019-01-08T12:55:18.865Z,1.00
2019-01-08T12:57:44.904Z,0.50
2019-01-08T13:00:11.074Z,1.13
2019-01-08T13:02:37.125Z,0.60
2019-01-08T13:05:03.093Z,1.17
2019-01-08T13:07:29.152Z,0.90
2019-01-08T13:09:55.191Z,0.70
2019-01-08T13:12:21.154Z,0.60
2019-01-08T13:14:47.114Z,0.60
2019-01-08T13:17:13.070Z,0.70
2019-01-08T13:19:39.022Z,0.70
2019-01-08T13:22:05.081Z,0.90
2019-01-08T13:24:31.216Z,0.73
2019-01-08T13:26:57.168Z,0.83
2019-01-08T13:29:23.113Z,0.50
2019-01-08T13:31:49.074Z,0.63
2019-01-08T13:34:15.020Z,0.57
2019-01-08T13:36:40.976Z,0.70
2019-01-08T13:39:06.923Z,0.60
2019-01-08T13:41:32.875Z,0.50
2019-01-08T13:43:58.928Z,0.60
2019-01-08T13:46:24.843Z,0.70
2019-01-08T13:48:50.823Z,0.60
2019-01-08T13:51:16.779Z,0.90
2019-01-08T13:53:42.726Z,0.90
2019-01-08T13:56:08.686Z,0.77
2019-01-08T13:58:34.627Z,0.77
2019-01-08T14:01:00.584Z,0.50
2019-01-08T14:03:26.559Z,0.50
2019-01-08T14:05:52.524Z,0.80
2019-01-08T14:08:18.582Z,0.80
2019-01-08T14:10:44.622Z,0.50
2019-01-08T14:13:10.867Z,1.00
2019-01-08T14:15:36.826Z,0.63
2019-01-08T14:18:02.770Z,0.57
2019-01-08T14:20:28.849Z,0.77
2019-01-08T14:22:54.922Z,0.70
2019-01-08T14:25:20.887Z,0.70
2019-01-08T14:27:46.821Z,1.20
2019-01-08T14:30:12.765Z,1.00
2019-01-08T14:32:40.718Z,1.10
2019-01-08T14:35:06.617Z,0.50
2019-01-08T14:37:32.659Z,0.50
2019-01-08T14:39:58.612Z,0.80
2019-01-08T14:42:24.581Z,0.80
2019-01-08T14:44:50.627Z,0.87
2019-01-08T14:47:17.481Z,0.77
2019-01-08T14:49:43.600Z,0.77
2019-01-08T14:52:09.657Z,0.80
2019-01-08T14:54:35.726Z,0.80
2019-01-08T14:57:01.669Z,0.77
2019-01-08T14:59:27.725Z,0.90
2019-01-08T15:01:53.779Z,0.60
2019-01-08T15:04:19.761Z,0.90
2019-01-08T15:06:45.807Z,0.60
2019-01-08T15:09:11.733Z,0.50
2019-01-08T15:11:37.681Z,0.70
2019-01-08T15:14:03.625Z,0.67
2019-01-08T15:16:29.564Z,0.90
2019-01-08T15:18:55.513Z,0.90
2019-01-08T15:21:21.469Z,0.80
2019-01-08T15:23:47.405Z,0.50
2019-01-08T15:26:13.359Z,0.93
2019-01-08T15:28:39.304Z,0.80
2019-01-08T15:31:05.252Z,0.70
2019-01-08T15:33:31.219Z,0.70
2019-01-08T15:35:57.174Z,0.80
2019-01-08T15:38:23.141Z,0.70
2019-01-08T15:40:49.069Z,0.57
2019-01-08T15:43:15.018Z,0.50
2019-01-08T15:45:40.960Z,0.70
2019-01-08T15:48:06.928Z,0.93
2019-01-08T15:50:32.988Z,0.57
2019-01-08T15:52:58.939Z,0.73
2019-01-08T15:55:24.914Z,0.67
2019-01-08T15:57:50.892Z,0.57
2019-01-08T16:00:16.854Z,0.80
2019-01-08T16:02:42.808Z,0.50
2019-01-08T16:05:08.753Z,0.60
2019-01-08T16:07:34.716Z,1.07
2019-01-08T16:10:00.666Z,0.60
2019-01-08T16:12:26.639Z,0.83
2019-01-08T16:14:52.588Z,0.73
2019-01-08T16:17:18.562Z,0.80
2019-01-08T16:19:44.520Z,0.77
2019-01-08T16:22:10.485Z,0.60
2019-01-08T16:24:36.540Z,0.70
2019-01-08T16:27:02.502Z,0.90
2019-01-08T16:29:28.550Z,0.60
2019-01-08T16:31:54.513Z,0.70
2019-01-08T16:34:20.473Z,0.47
2019-01-08T16:36:48.246Z,0.50
2019-01-08T16:39:14.274Z,0.80
2019-01-08T16:41:40.204Z,0.83
2019-01-08T16:44:06.167Z,0.80
2019-01-08T16:46:32.115Z,0.67
2019-01-08T16:48:58.066Z,0.80
2019-01-08T16:51:24.014Z,0.60
2019-01-08T16:53:49.990Z,0.73
2019-01-08T16:56:16.026Z,0.60
2019-01-08T16:58:41.964Z,0.90
2019-01-08T17:01:07.926Z,0.73
2019-01-08T17:03:33.885Z,0.57
2019-01-08T17:05:59.861Z,0.83
2019-01-08T17:08:25.971Z,1.33
2019-01-08T17:10:52.046Z,0.40
2019-01-08T17:13:17.994Z,0.47
2019-01-08T17:15:43.925Z,0.80
2019-01-08T17:18:09.893Z,0.70
2019-01-08T17:20:35.852Z,0.50
2019-01-08T17:23:01.794Z,0.70
2019-01-08T17:25:27.771Z,0.70
2019-01-08T17:27:53.849Z,0.80
2019-01-08T17:30:19.906Z,0.70
2019-01-08T17:32:45.864Z,0.70
2019-01-08T17:35:11.786Z,0.73
2019-01-08T17:37:37.744Z,0.60
2019-01-08T17:40:03.703Z,0.90
2019-01-08T17:42:29.751Z,0.80
2019-01-08T17:44:55.712Z,0.93
2019-01-08T17:47:21.647Z,0.63
2019-01-08T17:49:47.599Z,0.80
2019-01-08T17:52:13.559Z,2.70
2019-01-08T17:54:39.511Z,2.30
2019-01-08T17:57:05.429Z,2.20
2019-01-08T17:59:31.398Z,3.63
2019-01-08T18:01:57.470Z,3.93
2019-01-08T18:04:23.431Z,4.13
2019-01-08T18:06:49.385Z,2.93
2019-01-08T18:09:15.333Z,2.77
2019-01-08T18:11:41.267Z,3.37
2019-01-08T18:14:07.240Z,2.80
2019-01-08T18:16:33.295Z,2.30
2019-01-08T18:18:59.250Z,3.43
2019-01-08T18:21:25.284Z,3.37
2019-01-08T18:23:51.259Z,2.60
2019-01-08T18:26:17.192Z,2.50
2019-01-08T18:28:43.157Z,3.23
2019-01-08T18:31:09.091Z,2.73
2019-01-08T18:33:35.041Z,2.40
2019-01-08T18:36:01.542Z,2.40
2019-01-08T18:38:27.620Z,2.57
2019-01-08T18:40:53.665Z,2.10
2019-01-08T18:43:19.605Z,1.90
2019-01-08T18:45:46.077Z,1.80
2019-01-08T18:48:12.041Z,1.93
2019-01-08T18:50:38.013Z,2.20
2019-01-08T18:53:03.957Z,1.80
2019-01-08T18:55:29.909Z,1.50
2019-01-08T18:57:55.855Z,1.40
2019-01-08T19:00:21.824Z,1.93
2019-01-08T19:02:47.773Z,1.93
2019-01-08T19:05:13.721Z,1.30
2019-01-08T19:07:39.691Z,1.87
2019-01-08T19:10:05.653Z,2.27
2019-01-08T19:12:31.718Z,1.40
2019-01-08T19:14:57.676Z,1.20
2019-01-08T19:17:23.631Z,1.63
2019-01-08T19:19:49.619Z,1.30
2019-01-08T19:22:15.777Z,2.20
2019-01-08T19:24:41.768Z,2.60
2019-01-08T19:27:07.829Z,1.40
2019-01-08T19:29:33.777Z,1.53
2019-01-08T19:31:59.825Z,1.50
2019-01-08T19:34:25.802Z,1.60
2019-01-08T19:36:51.770Z,1.20
2019-01-08T19:39:17.717Z,1.30
2019-01-08T19:41:43.669Z,1.00
2019-01-08T19:44:09.624Z,1.20
2019-01-08T19:46:35.582Z,1.70
2019-01-08T19:49:01.546Z,1.17
2019-01-08T19:51:27.475Z,1.80
2019-01-08T19:53:53.414Z,1.30
2019-01-08T19:56:19.382Z,1.53
2019-01-08T19:58:45.344Z,1.27
2019-01-08T20:01:11.283Z,1.20
2019-01-08T20:03:37.221Z,1.00
2019-01-08T20:06:03.438Z,1.40
2019-01-08T20:08:29.391Z,1.00
2019-01-08T20:10:55.439Z,1.50
2019-01-08T20:13:21.406Z,2.73
2019-01-08T20:15:47.397Z,1.13
2019-01-08T20:18:13.575Z,1.60
2019-01-08T20:20:39.634Z,1.50
2019-01-08T20:23:05.699Z,1.10
2019-01-08T20:25:31.666Z,0.97
2019-01-08T20:27:57.625Z,1.63
2019-01-08T20:30:23.607Z,1.53
2019-01-08T20:32:49.663Z,1.60
2019-01-08T20:35:15.714Z,1.33
2019-01-08T20:37:41.678Z,0.90
2019-01-08T20:40:07.728Z,1.43
2019-01-08T20:42:33.701Z,1.13
2019-01-08T20:44:59.656Z,1.47
2019-01-08T20:47:25.619Z,2.10
2019-01-08T20:49:51.580Z,1.87
2019-01-08T20:52:17.562Z,1.87
2019-01-08T20:54:43.613Z,0.97
2019-01-08T20:57:09.622Z,0.60
2019-01-08T20:59:35.637Z,1.50
2019-01-08T21:02:01.703Z,1.47
2019-01-08T21:04:35.265Z,0.97
2019-01-08T21:06:55.541Z,1.13
2019-01-08T21:09:21.490Z,1.10
2019-01-08T21:11:47.463Z,1.10
2019-01-08T21:14:13.419Z,1.83
2019-01-08T21:16:39.377Z,1.23
2019-01-08T21:19:05.435Z,1.53
2019-01-08T21:21:31.385Z,1.37
2019-01-08T21:23:57.344Z,1.10
2019-01-08T21:26:23.293Z,0.73
2019-01-08T21:28:49.239Z,1.27
2019-01-08T21:31:15.196Z,1.23
2019-01-08T21:33:41.161Z,0.87
2019-01-08T21:36:07.121Z,0.80
2019-01-08T21:38:33.101Z,1.00
2019-01-08T21:40:59.162Z,0.93
2019-01-08T21:43:25.121Z,0.70
2019-01-08T21:45:51.083Z,1.20
2019-01-08T21:48:17.038Z,1.17
2019-01-08T21:50:42.974Z,1.30
2019-01-08T21:53:08.944Z,0.63
2019-01-08T21:55:34.888Z,0.90
2019-01-08T21:58:00.829Z,1.10
2019-01-08T22:00:26.787Z,1.30
2019-01-08T22:02:52.722Z,1.03
2019-01-08T22:05:18.678Z,0.60
2019-01-08T22:07:44.628Z,0.73
2019-01-08T22:10:10.681Z,1.47
2019-01-08T22:12:36.655Z,0.77
2019-01-08T22:15:02.720Z,1.20
2019-01-08T22:17:28.675Z,0.93
2019-01-08T22:19:54.626Z,1.00
2019-01-08T22:22:20.581Z,0.80
2019-01-08T22:24:46.557Z,1.07
2019-01-08T22:27:12.517Z,1.10
2019-01-08T22:29:38.450Z,1.00
2019-01-08T22:32:04.387Z,1.23
2019-01-08T22:34:30.355Z,0.70
2019-01-08T22:36:56.316Z,0.60
2019-01-08T22:39:22.253Z,0.97
2019-01-08T22:41:48.203Z,0.70
2019-01-08T22:44:14.154Z,0.87
2019-01-08T22:46:40.115Z,0.80
2019-01-08T22:49:06.077Z,0.90
2019-01-08T22:51:32.040Z,0.90
2019-01-08T22:53:57.994Z,0.93
2019-01-08T22:56:23.924Z,1.10
2019-01-08T22:58:49.864Z,1.10
2019-01-08T23:01:17.048Z,1.13
2019-01-08T23:03:43.180Z,0.70
2019-01-08T23:06:09.214Z,0.87
2019-01-08T23:08:35.188Z,0.90
2019-01-08T23:11:01.119Z,1.00
2019-01-08T23:13:27.075Z,1.17
2019-01-08T23:15:53.308Z,1.17
2019-01-08T23:18:19.270Z,1.23
2019-01-08T23:20:45.312Z,0.73
2019-01-08T23:23:11.289Z,1.00
2019-01-08T23:25:37.233Z,1.17
2019-01-08T23:28:03.175Z,0.80
2019-01-08T23:30:29.121Z,0.93
2019-01-08T23:32:55.079Z,0.70
2019-01-08T23:35:21.055Z,1.13
2019-01-08T23:37:47.005Z,1.00
2019-01-08T23:40:12.939Z,0.90
2019-01-08T23:42:38.882Z,0.90
2019-01-08T23:45:04.824Z,0.80
2019-01-08T23:47:30.885Z,0.90
2019-01-08T23:49:56.849Z,0.90
2019-01-08T23:52:22.877Z,0.93
2019-01-08T23:54:48.822Z,1.40
2019-01-08T23:57:14.784Z,1.10
2019-01-08T23:59:40.751Z,1.30
